createdAt,value
2018-05-04T00:02:31.847Z,14.33
2018-05-04T00:05:05.408Z,14.40
2018-05-04T00:07:42.133Z,14.43
2018-05-04T00:10:19.240Z,14.27
2018-05-04T00:12:55.114Z,14.25
2018-05-04T00:15:28.939Z,14.29
2018-05-04T00:18:02.280Z,14.34
2018-05-04T00:20:40.721Z,14.39
2018-05-04T00:23:14.873Z,14.23
2018-05-04T00:25:51.728Z,14.25
2018-05-04T00:28:27.691Z,14.31
2018-05-04T00:31:06.192Z,14.28
2018-05-04T00:33:44.127Z,14.29
2018-05-04T00:36:21.154Z,14.32
2018-05-04T00:38:59.354Z,14.22
2018-05-04T00:41:34.953Z,14.29
2018-05-04T00:44:10.210Z,14.22
2018-05-04T00:46:44.015Z,14.12
2018-05-04T00:49:17.438Z,14.04
2018-05-04T00:51:51.008Z,13.93
2018-05-04T00:54:28.581Z,13.94
2018-05-04T00:57:03.629Z,13.89
2018-05-04T00:59:39.338Z,13.83
2018-05-04T01:02:14.991Z,13.94
2018-05-04T01:07:29.000Z,13.91
2018-05-04T01:10:02.668Z,13.79
2018-05-04T01:12:36.228Z,13.80
2018-05-04T01:15:09.577Z,13.75
2018-05-04T01:17:43.773Z,13.59
2018-05-04T01:20:18.841Z,13.65
2018-05-04T01:22:57.086Z,13.78
2018-05-04T01:25:30.468Z,13.86
2018-05-04T01:28:06.328Z,13.82
2018-05-04T01:30:39.890Z,13.83
2018-05-04T01:33:16.148Z,13.78
2018-05-04T01:35:49.594Z,13.75
2018-05-04T01:38:26.702Z,13.60
2018-05-04T01:41:00.076Z,13.68
2018-05-04T01:43:33.455Z,13.86
2018-05-04T01:46:09.416Z,13.82
2018-05-04T01:48:42.781Z,13.57
2018-05-04T01:51:16.648Z,13.73
2018-05-04T01:53:50.611Z,13.61
2018-05-04T01:56:24.124Z,13.65
2018-05-04T01:58:59.594Z,13.65
2018-05-04T02:01:34.555Z,13.74
2018-05-04T02:04:08.056Z,13.82
2018-05-04T02:06:43.765Z,13.70
2018-05-04T02:09:17.143Z,13.23
2018-05-04T02:11:52.564Z,13.25
2018-05-04T02:14:25.906Z,13.32
2018-05-04T02:16:59.320Z,13.00
2018-05-04T02:19:33.007Z,13.23
2018-05-04T02:22:08.790Z,13.34
2018-05-04T02:24:45.336Z,13.43
2018-05-04T02:27:23.433Z,13.44
2018-05-04T02:29:58.702Z,13.59
2018-05-04T02:32:34.239Z,13.24
2018-05-04T02:35:07.598Z,13.06
2018-05-04T02:37:44.619Z,13.30
2018-05-04T02:40:18.114Z,13.35
2018-05-04T02:45:20.315Z,13.10
2018-05-04T02:47:55.939Z,13.32
2018-05-04T02:50:29.330Z,13.42
2018-05-04T02:53:05.464Z,13.34
2018-05-04T02:55:41.026Z,13.15
2018-05-04T02:58:14.336Z,13.37
2018-05-04T03:00:48.204Z,13.22
2018-05-04T03:03:21.544Z,13.12
2018-05-04T03:05:59.490Z,13.30
2018-05-04T03:08:34.125Z,13.25
2018-05-04T03:11:07.780Z,13.23
2018-05-04T03:13:42.829Z,13.29
2018-05-04T03:16:17.122Z,13.18
2018-05-04T03:18:51.119Z,13.22
2018-05-04T03:21:24.676Z,13.14
2018-05-04T03:24:00.361Z,13.13
2018-05-04T03:26:34.051Z,13.13
2018-05-04T03:29:09.756Z,13.10
2018-05-04T03:31:45.901Z,12.81
2018-05-04T03:34:21.640Z,12.97
2018-05-04T03:36:57.339Z,13.05
2018-05-04T03:39:31.115Z,13.21
2018-05-04T03:42:05.017Z,13.13
2018-05-04T03:44:38.384Z,13.09
2018-05-04T03:47:15.294Z,12.94
2018-05-04T03:49:49.040Z,12.86
2018-05-04T03:52:22.379Z,12.84
2018-05-04T03:54:56.374Z,13.00
2018-05-04T03:57:40.482Z,13.09
2018-05-04T04:02:26.944Z,12.98
2018-05-04T04:05:02.370Z,12.83
2018-05-04T04:07:35.833Z,12.89
2018-05-04T04:10:09.635Z,13.01
2018-05-04T04:12:45.210Z,12.85
2018-05-04T04:15:18.616Z,13.01
2018-05-04T04:17:54.470Z,12.86
2018-05-04T04:20:28.024Z,12.98
2018-05-04T04:23:01.341Z,13.04
2018-05-04T04:25:36.707Z,12.88
2018-05-04T04:28:11.272Z,12.59
2018-05-04T04:30:45.022Z,12.62
2018-05-04T04:33:19.057Z,12.67
2018-05-04T04:35:52.799Z,12.80
2018-05-04T04:38:28.499Z,12.74
2018-05-04T04:41:02.862Z,12.81
2018-05-04T04:43:36.348Z,12.81
2018-05-04T04:46:13.869Z,12.82
2018-05-04T04:49:51.889Z,12.85
2018-05-04T04:52:25.167Z,12.83
2018-05-04T04:54:58.530Z,12.89
2018-05-04T04:57:34.673Z,13.08
2018-05-04T05:00:10.367Z,13.03
2018-05-04T05:02:47.586Z,12.92
2018-05-04T05:05:22.275Z,13.00
2018-05-04T05:10:36.768Z,13.01
2018-05-04T05:13:15.724Z,12.97
2018-05-04T05:18:20.053Z,13.16
2018-05-04T05:21:00.017Z,13.17
2018-05-04T05:23:38.485Z,13.09
2018-05-04T05:26:13.348Z,13.24
2018-05-04T05:28:47.120Z,13.37
2018-05-04T05:31:29.540Z,13.23
2018-05-04T05:34:06.398Z,13.30
2018-05-04T05:36:40.437Z,13.17
2018-05-04T05:39:14.546Z,13.36
2018-05-04T05:41:48.221Z,13.23
2018-05-04T05:44:23.088Z,13.40
2018-05-04T05:46:57.628Z,13.35
2018-05-04T05:49:31.063Z,13.47
2018-05-04T05:52:05.074Z,13.48
2018-05-04T05:54:38.579Z,13.32
2018-05-04T05:57:11.993Z,12.99
2018-05-04T05:59:45.777Z,13.31
2018-05-04T06:02:24.893Z,13.13
2018-05-04T06:05:03.451Z,13.36
2018-05-04T06:07:37.829Z,13.52
2018-05-04T06:10:13.543Z,13.48
2018-05-04T06:12:50.786Z,13.39
2018-05-04T06:15:26.035Z,13.64
2018-05-04T06:18:05.080Z,13.70
2018-05-04T06:20:38.733Z,13.69
2018-05-04T06:23:12.812Z,13.64
2018-05-04T06:25:47.779Z,13.63
2018-05-04T06:28:23.763Z,13.48
2018-05-04T06:30:57.793Z,13.18
2018-05-04T06:33:31.891Z,13.59
2018-05-04T06:36:06.481Z,13.73
2018-05-04T06:38:40.576Z,13.62
2018-05-04T06:41:14.276Z,13.67
2018-05-04T06:43:51.676Z,13.63
2018-05-04T06:46:26.439Z,13.68
2018-05-04T06:49:01.933Z,13.39
2018-05-04T06:51:36.603Z,13.13
2018-05-04T06:54:10.678Z,13.57
2018-05-04T06:56:47.973Z,13.33
2018-05-04T06:59:21.542Z,13.51
2018-05-04T07:01:55.722Z,13.72
2018-05-04T07:04:32.153Z,13.68
2018-05-04T07:07:06.756Z,13.81
2018-05-04T07:09:44.503Z,13.91
2018-05-04T07:12:21.123Z,13.65
2018-05-04T07:14:54.953Z,13.90
2018-05-04T07:17:28.632Z,13.92
2018-05-04T07:20:04.137Z,13.58
2018-05-04T07:22:38.117Z,13.78
2018-05-04T07:25:12.340Z,13.83
2018-05-04T07:27:46.322Z,14.00
2018-05-04T07:30:22.193Z,13.89
2018-05-04T07:32:57.723Z,13.73
2018-05-04T07:35:33.604Z,13.92
2018-05-04T07:38:10.251Z,14.40
2018-05-04T07:40:44.986Z,14.28
2018-05-04T07:43:18.661Z,14.03
2018-05-04T07:45:52.348Z,13.75
2018-05-04T07:48:28.319Z,14.14
2018-05-04T07:51:04.083Z,14.45
2018-05-04T07:53:38.818Z,14.31
2018-05-04T07:56:15.610Z,14.39
2018-05-04T07:58:51.456Z,14.49
2018-05-04T08:01:27.740Z,14.75
2018-05-04T08:04:06.355Z,14.86
2018-05-04T08:06:40.179Z,14.76
2018-05-04T08:09:18.997Z,15.07
2018-05-04T08:11:53.367Z,15.17
2018-05-04T08:14:26.968Z,14.93
2018-05-04T08:17:00.580Z,15.20
2018-05-04T08:19:36.480Z,14.95
2018-05-04T08:22:11.538Z,15.03
2018-05-04T08:24:45.231Z,15.19
2018-05-04T08:27:21.946Z,15.56
2018-05-04T08:29:57.982Z,15.64
2018-05-04T08:32:36.713Z,15.74
2018-05-04T08:35:14.282Z,15.97
2018-05-04T08:37:49.591Z,16.03
2018-05-04T08:40:23.568Z,15.36
2018-05-04T08:42:58.392Z,15.46
2018-05-04T08:45:31.786Z,15.65
2018-05-04T08:48:06.767Z,16.00
2018-05-04T08:50:42.955Z,16.11
2018-05-04T08:53:19.644Z,15.47
2018-05-04T08:55:58.244Z,15.82
2018-05-04T08:58:32.019Z,15.57
2018-05-04T09:01:07.463Z,15.05
2018-05-04T09:03:44.464Z,15.26
2018-05-04T09:06:21.671Z,15.86
2018-05-04T09:08:58.036Z,16.15
2018-05-04T09:11:35.008Z,16.34
2018-05-04T09:14:08.663Z,15.71
2018-05-04T09:16:45.413Z,16.06
2018-05-04T09:19:20.108Z,16.41
2018-05-04T09:21:54.389Z,16.57
2018-05-04T09:24:29.970Z,16.62
2018-05-04T09:27:04.500Z,16.79
2018-05-04T09:29:38.500Z,16.59
2018-05-04T09:32:14.474Z,17.22
2018-05-04T09:34:50.713Z,17.26
2018-05-04T09:37:31.187Z,17.36
2018-05-04T09:40:06.613Z,17.84
2018-05-04T09:42:40.684Z,17.33
2018-05-04T09:45:14.486Z,17.38
2018-05-04T09:47:48.782Z,17.01
2018-05-04T09:50:22.823Z,16.53
2018-05-04T09:52:56.681Z,16.93
2018-05-04T09:55:30.625Z,17.23
2018-05-04T09:58:05.906Z,17.06
2018-05-04T10:00:44.513Z,17.08
2018-05-04T10:03:18.533Z,16.99
2018-05-04T10:05:53.963Z,17.77
2018-05-04T10:08:31.318Z,17.68
2018-05-04T10:11:04.919Z,16.46
2018-05-04T10:13:39.636Z,16.59
2018-05-04T10:16:15.298Z,16.79
2018-05-04T10:18:54.576Z,17.15
2018-05-04T10:21:30.666Z,16.44
2018-05-04T10:24:11.334Z,17.35
2018-05-04T10:26:48.585Z,17.29
2018-05-04T10:29:39.106Z,16.86
2018-05-04T10:32:32.932Z,17.44
2018-05-04T10:35:10.745Z,18.08
2018-05-04T10:37:48.075Z,18.29
2018-05-04T10:40:29.043Z,17.74
2018-05-04T10:43:04.503Z,17.53
2018-05-04T10:45:39.520Z,17.53
2018-05-04T10:48:17.275Z,17.51
2018-05-04T10:51:04.722Z,17.88
2018-05-04T10:53:40.254Z,18.10
2018-05-04T10:56:30.429Z,17.78
2018-05-04T10:59:20.795Z,18.24
2018-05-04T11:02:08.303Z,18.00
2018-05-04T11:04:47.889Z,18.27
2018-05-04T11:07:22.809Z,18.40
2018-05-04T11:09:59.549Z,18.74
2018-05-04T11:12:43.031Z,18.29
2018-05-04T11:15:18.071Z,18.95
2018-05-04T11:17:56.285Z,18.26
2018-05-04T11:20:33.187Z,18.40
2018-05-04T11:23:11.560Z,18.72
2018-05-04T11:25:46.851Z,18.48
2018-05-04T11:28:29.358Z,18.47
2018-05-04T11:31:06.351Z,18.48
2018-05-04T11:33:51.435Z,19.15
2018-05-04T11:37:01.721Z,18.52
2018-05-04T11:39:40.704Z,18.27
2018-05-04T11:42:16.418Z,19.03
2018-05-04T11:44:53.264Z,19.50
2018-05-04T11:47:30.377Z,18.67
2018-05-04T11:50:07.733Z,18.40
2018-05-04T11:52:43.828Z,18.23
2018-05-04T11:55:20.105Z,18.74
2018-05-04T11:57:54.288Z,19.10
2018-05-04T12:00:28.032Z,18.87
2018-05-04T12:03:02.088Z,19.08
2018-05-04T12:05:35.673Z,19.30
2018-05-04T12:08:11.700Z,19.81
2018-05-04T12:10:47.584Z,20.19
2018-05-04T12:13:23.316Z,20.03
2018-05-04T12:15:56.995Z,19.92
2018-05-04T12:18:30.775Z,19.94
2018-05-04T12:21:05.509Z,19.86
2018-05-04T12:23:41.981Z,19.74
2018-05-04T12:26:17.034Z,19.40
2018-05-04T12:28:50.906Z,20.05
2018-05-04T12:31:27.612Z,20.20
2018-05-04T12:34:03.860Z,19.09
2018-05-04T12:36:37.509Z,19.51
2018-05-04T12:39:13.481Z,19.22
2018-05-04T12:41:49.168Z,19.57
2018-05-04T12:44:25.251Z,19.80
2018-05-04T12:47:02.696Z,19.63
2018-05-04T12:49:37.338Z,19.72
2018-05-04T12:52:13.564Z,20.33
2018-05-04T12:54:47.268Z,19.93
2018-05-04T12:57:23.334Z,20.19
2018-05-04T12:59:58.462Z,19.21
2018-05-04T13:02:33.040Z,20.04
2018-05-04T13:05:08.748Z,19.71
2018-05-04T13:07:45.332Z,19.90
2018-05-04T13:10:19.760Z,20.12
2018-05-04T13:12:53.312Z,19.57
2018-05-04T13:15:29.471Z,19.10
2018-05-04T13:18:05.737Z,19.12
2018-05-04T13:20:39.179Z,19.54
2018-05-04T13:23:13.091Z,19.38
2018-05-04T13:25:48.930Z,19.99
2018-05-04T13:28:22.400Z,19.83
2018-05-04T13:30:57.871Z,19.95
2018-05-04T13:33:31.990Z,20.22
2018-05-04T13:36:22.996Z,19.39
2018-05-04T13:39:04.851Z,19.54
2018-05-04T13:41:44.095Z,19.98
2018-05-04T13:44:24.107Z,20.33
2018-05-04T13:46:59.291Z,20.28
2018-05-04T13:49:45.307Z,20.30
2018-05-04T13:52:19.666Z,20.53
2018-05-04T13:54:53.556Z,20.73
2018-05-04T13:57:27.448Z,20.15
2018-05-04T14:00:05.124Z,20.20
2018-05-04T14:02:40.479Z,19.92
2018-05-04T14:05:14.349Z,20.30
2018-05-04T14:07:50.943Z,20.23
2018-05-04T14:10:32.127Z,20.05
2018-05-04T14:13:09.616Z,20.21
2018-05-04T14:15:45.340Z,19.92
2018-05-04T14:18:24.423Z,19.96
2018-05-04T14:21:06.873Z,19.78
2018-05-04T14:23:43.332Z,19.70
2018-05-04T14:26:17.534Z,19.40
2018-05-04T14:28:59.118Z,19.75
2018-05-04T14:31:42.666Z,19.76
2018-05-04T14:34:17.197Z,19.71
2018-05-04T14:36:53.614Z,19.68
2018-05-04T14:39:27.624Z,19.00
2018-05-04T14:42:07.004Z,19.19
2018-05-04T14:44:43.322Z,18.96
2018-05-04T14:47:20.975Z,19.31
2018-05-04T14:49:55.053Z,18.93
2018-05-04T14:52:30.708Z,18.70
2018-05-04T14:55:07.031Z,18.61
2018-05-04T14:57:45.361Z,18.61
2018-05-04T15:02:57.578Z,18.18
2018-05-04T15:05:32.733Z,18.67
2018-05-04T15:08:06.343Z,18.64
2018-05-04T15:10:44.819Z,18.66
2018-05-04T15:13:19.524Z,18.76
2018-05-04T15:15:57.357Z,18.35
2018-05-04T15:18:32.267Z,18.08
2018-05-04T15:21:06.256Z,18.02
2018-05-04T15:23:42.255Z,18.13
2018-05-04T15:29:05.512Z,18.13
2018-05-04T15:31:40.023Z,17.73
2018-05-04T15:34:32.753Z,17.83
2018-05-04T15:37:10.646Z,17.97
2018-05-04T15:39:47.167Z,17.70
2018-05-04T15:42:21.240Z,17.70
2018-05-04T15:44:56.741Z,17.79
2018-05-04T15:47:32.083Z,17.68
2018-05-04T15:50:10.731Z,17.85
2018-05-04T15:52:45.612Z,18.01
2018-05-04T15:55:22.507Z,18.08
2018-05-04T15:57:55.974Z,18.12
2018-05-04T16:00:30.995Z,18.09
2018-05-04T16:03:10.164Z,17.91
2018-05-04T16:05:43.916Z,18.04
2018-05-04T16:08:18.881Z,18.13
2018-05-04T16:10:55.261Z,18.18
2018-05-04T16:13:29.145Z,18.31
2018-05-04T16:16:06.098Z,18.29
2018-05-04T16:18:41.495Z,18.11
2018-05-04T16:21:16.179Z,18.22
2018-05-04T16:23:52.735Z,18.25
2018-05-04T16:26:26.686Z,18.38
2018-05-04T16:29:01.495Z,18.28
2018-05-04T16:31:36.896Z,17.86
2018-05-04T16:34:11.111Z,17.75
2018-05-04T16:36:44.680Z,17.52
2018-05-04T16:39:19.594Z,17.50
2018-05-04T16:41:54.168Z,17.48
2018-05-04T16:44:27.734Z,17.42
2018-05-04T16:47:07.233Z,17.30
2018-05-04T16:49:42.598Z,17.30
2018-05-04T16:52:19.063Z,17.27
2018-05-04T16:54:53.187Z,17.28
2018-05-04T16:57:31.639Z,17.25
2018-05-04T17:00:10.738Z,17.39
2018-05-04T17:02:44.572Z,17.25
2018-05-04T17:05:18.381Z,17.09
2018-05-04T17:07:52.755Z,17.07
2018-05-04T17:10:26.261Z,17.04
2018-05-04T17:13:01.318Z,16.88
2018-05-04T17:15:35.072Z,16.94
2018-05-04T17:18:12.474Z,16.90
2018-05-04T17:20:48.242Z,16.81
2018-05-04T17:25:48.553Z,16.78
2018-05-04T17:28:25.225Z,16.84
2018-05-04T17:31:01.943Z,16.81
2018-05-04T17:33:36.641Z,16.77
2018-05-04T17:36:12.322Z,16.74
2018-05-04T17:38:47.235Z,16.68
2018-05-04T17:41:20.979Z,16.75
2018-05-04T17:43:55.111Z,16.69
2018-05-04T17:46:28.567Z,16.64
2018-05-04T17:49:03.512Z,16.57
2018-05-04T17:51:39.654Z,16.44
2018-05-04T17:54:13.256Z,16.36
2018-05-04T17:56:46.737Z,16.29
2018-05-04T17:59:21.117Z,16.26
2018-05-04T18:01:54.725Z,16.07
2018-05-04T18:04:28.756Z,16.05
2018-05-04T18:07:02.587Z,15.94
2018-05-04T18:09:36.136Z,15.86
2018-05-04T18:12:11.796Z,15.68
2018-05-04T18:14:47.743Z,15.53
2018-05-04T18:17:23.766Z,15.59
2018-05-04T18:19:58.521Z,15.46
2018-05-04T18:22:33.337Z,15.40
2018-05-04T18:25:07.419Z,15.35
2018-05-04T18:27:41.092Z,15.17
2018-05-04T18:30:16.192Z,14.98
2018-05-04T18:32:55.052Z,14.85
2018-05-04T18:35:29.619Z,14.70
2018-05-04T18:38:03.392Z,14.53
2018-05-04T18:40:39.669Z,14.37
2018-05-04T18:43:15.781Z,14.22
2018-05-04T18:45:55.695Z,14.13
2018-05-04T18:48:30.522Z,14.05
2018-05-04T18:51:04.657Z,13.95
2018-05-04T18:53:40.025Z,13.92
2018-05-04T18:56:14.405Z,13.82
2018-05-04T18:58:51.909Z,13.77
2018-05-04T19:01:28.133Z,13.67
2018-05-04T19:04:04.595Z,13.60
2018-05-04T19:06:41.084Z,13.53
2018-05-04T19:09:14.755Z,13.49
2018-05-04T19:11:48.244Z,13.40
2018-05-04T19:14:22.704Z,13.36
2018-05-04T19:16:58.794Z,13.29
2018-05-04T19:19:35.106Z,13.20
2018-05-04T19:22:08.685Z,13.20
2018-05-04T19:24:42.116Z,13.10
2018-05-04T19:27:16.100Z,12.96
2018-05-04T19:29:54.207Z,12.87
2018-05-04T19:32:27.975Z,12.91
2018-05-04T19:35:02.121Z,12.88
2018-05-04T19:37:37.676Z,12.87
2018-05-04T19:40:11.954Z,12.77
2018-05-04T19:42:45.861Z,12.73
2018-05-04T19:45:20.846Z,12.76
2018-05-04T19:47:55.684Z,12.58
2018-05-04T19:50:31.212Z,12.57
2018-05-04T19:53:06.901Z,12.48
2018-05-04T19:55:40.458Z,12.44
2018-05-04T19:58:14.772Z,12.43
2018-05-04T20:00:50.351Z,12.40
2018-05-04T20:03:23.788Z,12.32
2018-05-04T20:05:57.709Z,12.29
2018-05-04T20:08:32.180Z,12.27
2018-05-04T20:11:07.991Z,12.21
2018-05-04T20:13:44.347Z,12.16
2018-05-04T20:16:17.925Z,12.06
2018-05-04T20:18:53.387Z,12.08
2018-05-04T20:21:27.289Z,12.04
2018-05-04T20:24:02.323Z,11.93
2018-05-04T20:26:35.709Z,11.91
2018-05-04T20:29:12.007Z,11.88
2018-05-04T20:31:48.596Z,11.81
2018-05-04T20:34:24.891Z,11.79
2018-05-04T20:37:00.469Z,11.87
2018-05-04T20:39:37.924Z,11.77
2018-05-04T20:42:15.331Z,11.69
2018-05-04T20:44:49.441Z,11.64
2018-05-04T20:47:25.071Z,11.63
2018-05-04T20:49:58.796Z,11.60
2018-05-04T20:52:33.111Z,11.52
2018-05-04T20:55:11.983Z,11.50
2018-05-04T20:57:47.361Z,11.53
2018-05-04T21:00:21.003Z,11.44
2018-05-04T21:02:57.310Z,11.37
2018-05-04T21:05:33.383Z,11.39
2018-05-04T21:08:07.285Z,11.33
2018-05-04T21:10:40.775Z,11.39
2018-05-04T21:13:14.413Z,11.33
2018-05-04T21:15:49.237Z,11.26
2018-05-04T21:18:24.374Z,11.20
2018-05-04T21:20:58.324Z,11.14
2018-05-04T21:23:31.939Z,11.09
2018-05-04T21:26:06.152Z,11.10
2018-05-04T21:28:39.737Z,11.10
2018-05-04T21:31:13.159Z,11.04
2018-05-04T21:33:46.627Z,11.05
2018-05-04T21:36:22.399Z,10.99
2018-05-04T21:38:59.395Z,10.90
2018-05-04T21:41:35.419Z,10.89
2018-05-04T21:44:11.491Z,10.79
2018-05-04T21:46:44.877Z,10.77
2018-05-04T21:49:18.324Z,10.75
2018-05-04T21:51:53.840Z,10.78
2018-05-04T21:54:29.948Z,10.87
2018-05-04T21:57:05.547Z,10.77
2018-05-04T21:59:39.313Z,10.67
2018-05-04T22:02:13.042Z,10.43
2018-05-04T22:04:46.512Z,10.32
2018-05-04T22:07:20.444Z,10.43
2018-05-04T22:09:55.892Z,10.44
2018-05-04T22:12:29.552Z,10.50
2018-05-04T22:15:04.034Z,10.46
2018-05-04T22:17:37.884Z,10.49
2018-05-04T22:20:13.158Z,10.44
2018-05-04T22:22:47.206Z,10.41
2018-05-04T22:25:20.801Z,10.34
2018-05-04T22:27:56.723Z,10.45
2018-05-04T22:30:35.047Z,10.39
2018-05-04T22:33:08.500Z,10.33
2018-05-04T22:35:42.095Z,10.28
2018-05-04T22:38:16.065Z,10.40
2018-05-04T22:40:50.296Z,10.40
2018-05-04T22:43:23.901Z,10.28
2018-05-04T22:45:58.789Z,10.18
2018-05-04T22:48:32.225Z,10.17
2018-05-04T22:51:05.589Z,10.15
2018-05-04T22:53:40.612Z,10.20
2018-05-04T22:56:14.041Z,10.28
2018-05-04T22:58:47.426Z,10.13
2018-05-04T23:01:21.843Z,10.10
2018-05-04T23:03:55.320Z,10.07
2018-05-04T23:06:28.907Z,10.02
2018-05-04T23:09:02.745Z,9.93
2018-05-04T23:11:36.207Z,10.01
2018-05-04T23:14:09.991Z,9.97
2018-05-04T23:16:43.554Z,9.94
2018-05-04T23:19:16.988Z,9.92
2018-05-04T23:21:50.416Z,9.87
2018-05-04T23:24:24.035Z,9.80
2018-05-04T23:26:57.436Z,9.75
2018-05-04T23:29:30.807Z,9.76
2018-05-04T23:32:04.616Z,9.72
2018-05-04T23:34:39.283Z,9.86
2018-05-04T23:37:13.861Z,9.88
2018-05-04T23:39:47.321Z,9.80
2018-05-04T23:42:20.811Z,9.76
2018-05-04T23:44:54.190Z,9.76
2018-05-04T23:47:29.050Z,9.66
2018-05-04T23:50:02.924Z,9.66
2018-05-04T23:52:36.465Z,9.67
2018-05-04T23:55:10.093Z,9.58
2018-05-04T23:57:43.791Z,9.56
